Latest Coastal Weather Observations for Lake Macquarie - Cooranbong

IDN60701

Issued at 8:54 pm EDT Thursday 2 April 2015 (issued every 10 minutes, with the page automatically refreshed every 10 minutes)

About coastal observations | Map of coastal stations | Coastal observations for NSW | Marine services | Other Formats
Station Details ID: 061412 Name: LAKE MACQUARIE AWS Lat: -33.09 Lon: 151.46 Height: 6.0 m
Data from the previous 72 hours. | See also: Recent months at Lake Macquarie - Cooranbong
Date/Time
EDT
Temp

°C
Wind Pressure Rain
since 9am
mm
Weather Cloud Vis
km
Sea
Height
m
Swell
Dir
 
Speed
knots
Gust
knots
hPa Trend Height
m
Period
s
Dir
02/08:30pm 20.0 CALM 0 0 1018.1 - 0.0 - - - - - - -
02/08:00pm 20.7 CALM 0 0 1017.8 - 0.0 - - - - - - -
02/07:30pm 21.4 CALM 0 0 1017.4 - 0.0 - - - - - - -
02/07:00pm 22.5 CALM 0 0 1017.2 - 0.0 - - - - - - -
02/06:30pm 23.4 CALM 0 0 1016.9 - 0.0 - - - - - - -
02/06:00pm 24.5 E 2 4 1016.7 - 0.0 - - - - - - -
02/05:30pm 25.1 ESE 4 5 1016.5 - 0.0 - - - - - - -
02/05:00pm 26.0 ESE 5 7 1016.5 - 0.0 - - - - - - -
02/04:30pm 26.6 E 3 5 1016.5 - 0.0 - - - - - - -
02/04:00pm 27.3 E 4 7 1016.4 - 0.0 - - - - - - -
02/03:30pm 27.9 CALM 0 2 1016.5 - 0.0 - - - - - - -
02/03:00pm 28.4 NE 3 6 1016.7 - 0.0 - - - - - - -
02/02:30pm 27.2 N 3 5 1016.9 - 0.0 - - - - - - -
02/02:00pm 27.9 NNE 3 6 1017.2 - 0.0 - - - - - - -
02/01:30pm 26.4 N 3 5 1017.8 - 0.0 - - - - - - -
02/01:00pm 26.2 N 3 4 1018.3 - 0.0 - - - - - - -
02/12:30pm 26.5 N 4 8 1018.6 - 0.0 - - - - - - -
02/12:00pm 26.3 NNE 2 4 1018.9 - 0.0 - - - - - - -
02/11:30am 25.1 N 1 3 1019.1 - 0.0 - - - - - - -
02/11:00am 24.4 ENE 1 4 1019.4 - 0.0 - - - - - - -
02/10:30am 23.8 E 2 4 1019.5 - 0.0 - - - - - - -
02/10:00am 21.7 CALM 0 0 1019.6 - 0.0 - - - - - - -
02/09:30am 19.3 CALM 0 2 1019.6 - 0.0 - - - - - - -
02/09:00am 18.4 CALM 0 0 1019.6 - 0.2 - - - - - - -
02/08:30am 16.5 CALM 0 0 1019.4 - 0.2 - - - - - - -
02/08:00am 15.5 CALM 0 0 1019.3 - 0.2 - - - - - - -
02/07:30am 14.2 CALM 0 0 1018.9 - 0.2 - - - - - - -
02/07:00am 14.3 CALM 0 0 1018.4 - 0.2 - - - - - - -
02/06:30am 14.2 CALM 0 0 1018.2 - 0.2 - - - - - - -
02/06:00am 14.4 CALM 0 0 1018.0 - 0.2 - - - - - - -
02/05:30am 14.7 CALM 0 0 1017.9 - 0.2 - - - - - - -
02/05:00am 15.0 CALM 0 0 1017.9 - 0.2 - - - - - - -
02/04:30am 15.4 CALM 0 0 1018.0 - 0.2 - - - - - - -
02/04:00am 15.2 CALM 0 0 1018.2 - 0.2 - - - - - - -
02/03:30am 15.5 CALM 0 0 1018.4 - 0.2 - - - - - - -
02/03:00am 15.3 CALM 0 0 1018.7 - 0.2 - - - - - - -
02/02:30am 16.1 NE 1 2 1019.1 - 0.2 - - - - - - -
02/02:00am 16.2 CALM 0 0 1019.5 - 0.2 - - - - - - -
02/01:30am 16.5 CALM 0 0 1019.9 - 0.2 - - - - - - -
02/01:00am 16.5 CALM 0 0 1020.2 - 0.2 - - - - - - -
02/12:30am 17.2 CALM 0 0 1020.3 - 0.2 - - - - - - -
02/12:00am 17.3 CALM 0 0 1020.5 - 0.2 - - - - - - -
 
Date/Time
EDT
Temp

°C
Wind Pressure Rain
since 9am
mm
Weather Cloud Vis
km
Sea
Height
m
Swell
Dir
 
Speed
knots
Gust
knots
hPa Trend Height
m
Period
s
Dir
01/11:30pm 17.3 NE 1 2 1020.6 - 0.2 - - - - - - -
01/11:00pm 17.7 CALM 0 0 1020.7 - 0.2 - - - - - - -
01/10:30pm 18.3 CALM 0 0 1020.7 - 0.2 - - - - - - -
01/10:00pm 18.5 CALM 0 1 1020.8 - 0.2 - - - - - - -
01/09:30pm 19.0 CALM 0 1 1020.8 - 0.2 - - - - - - -
01/09:00pm 19.7 ENE 1 2 1020.6 - 0.2 - - - - - - -
01/08:30pm 19.3 ENE 1 2 1020.6 - 0.2 - - - - - - -
01/08:00pm 19.8 CALM 0 0 1020.5 - 0.2 - - - - - - -
01/07:30pm 20.9 CALM 0 1 1020.4 - 0.2 - - - - - - -
01/07:00pm 22.6 E 2 4 1020.1 - 0.2 - - - - - - -
01/06:30pm 23.4 E 2 3 1019.7 - 0.2 - - - - - - -
01/06:00pm 24.0 E 4 7 1019.4 - 0.2 - - - - - - -
01/05:30pm 24.8 E 5 9 1019.4 - 0.2 - - - - - - -
01/05:00pm 25.0 E 6 11 1019.4 - 0.2 - - - - - - -
01/04:30pm 25.2 E 7 11 1019.5 - 0.2 - - - - - - -
01/04:00pm 24.8 E 5 8 1020.0 - 0.2 - - - - - - -
01/03:30pm 25.1 E 6 12 1020.3 - 0.2 - - - - - - -
01/03:00pm 25.6 E 5 9 1020.5 - 0.2 - - - - - - -
01/02:30pm 26.4 NE 4 8 1020.9 - 0.2 - - - - - - -
01/02:00pm 25.9 NNE 8 13 1021.3 - 0.2 - - - - - - -
01/01:30pm 25.5 NNE 7 12 1021.9 - 0.2 - - - - - - -
01/01:00pm 25.2 NNE 4 9 1022.6 - 0.2 - - - - - - -
01/12:30pm 24.4 NE 4 7 1023.2 - 0.2 - - - - - - -
01/12:00pm 23.8 NNE 4 8 1023.8 - 0.0 - - - - - - -
01/11:30am 23.8 NE 5 10 1024.1 - 0.0 - - - - - - -
01/11:00am 23.4 NE 5 8 1024.4 - 0.0 - - - - - - -
01/10:30am 22.6 NNE 6 10 1024.8 - 0.0 - - - - - - -
01/10:00am 20.8 NNW 2 5 1025.2 - 0.0 - - - - - - -
01/09:30am 19.3 NW 1 2 1025.3 - 0.0 - - - - - - -
01/09:00am 18.3 CALM 0 0 1025.3 - 18.6 - - - - - - -
01/08:30am 17.2 CALM 0 0 1025.3 - 18.6 - - - - - - -
01/08:00am 15.7 CALM 0 0 1025.1 - 18.6 - - - - - - -
01/07:30am 14.8 CALM 0 0 1024.8 - 18.6 - - - - - - -
01/07:00am 15.0 CALM 0 0 1024.6 - 18.6 - - - - - - -
01/06:30am 15.2 CALM 0 0 1024.3 - 18.4 - - - - - - -
01/06:00am 15.2 CALM 0 0 1023.9 - 18.4 - - - - - - -
01/05:30am 15.9 CALM 0 0 1023.6 - 18.4 - - - - - - -
01/05:00am 16.0 CALM 0 0 1023.5 - 18.4 - - - - - - -
01/04:30am 16.1 CALM 0 0 1023.2 - 18.4 - - - - - - -
01/04:00am 16.5 CALM 0 0 1023.4 - 18.4 - - - - - - -
01/03:30am 16.5 CALM 0 0 1023.6 - 18.4 - - - - - - -
01/03:00am 16.5 CALM 0 0 1024.0 - 18.4 - - - - - - -
01/02:30am 16.8 CALM 0 0 1024.5 - 18.4 - - - - - - -
01/02:00am 17.5 NNW 1 2 1024.8 - 18.4 - - - - - - -
01/01:30am 17.2 CALM 0 0 1025.2 - 18.2 - - - - - - -
01/01:00am 17.2 CALM 0 0 1025.1 - 18.2 - - - - - - -
01/12:30am 17.2 CALM 0 0 1025.3 - 18.2 - - - - - - -
01/12:00am 17.7 CALM 0 0 1025.5 - 18.2 - - - - - - -
 
Date/Time
EDT
Temp

°C
Wind Pressure Rain
since 9am
mm
Weather Cloud Vis
km
Sea
Height
m
Swell
Dir
 
Speed
knots
Gust
knots
hPa Trend Height
m
Period
s
Dir
31/11:30pm 18.4 WSW 1 2 1025.5 - 18.2 - - - - - - -
31/11:00pm 18.5 N 2 5 1025.6 - 18.2 - - - - - - -
31/10:30pm 18.7 NW 1 3 1025.5 - 14.2 - - - - - - -
31/10:00pm 18.5 NW 1 2 1025.4 - 9.6 - - - - - - -
31/09:30pm 18.3 CALM 0 1 1025.6 - 9.2 - - - - - - -
31/09:00pm 18.8 CALM 0 0 1025.7 - 9.2 Recent precip. - - - - - -
31/08:30pm 19.1 CALM 0 1 1025.6 - 9.0 - - - - - - -
31/08:00pm 19.4 SE 4 8 1025.4 - 7.8 - - - - - - -
31/07:30pm 19.6 ESE 3 7 1025.1 - 7.8 - - - - - - -
31/07:00pm 20.6 SSE 2 5 1024.6 - 7.2 - - - - - - -
31/06:30pm 21.0 S 2 4 1024.7 - 7.2 - - - - - - -
31/06:00pm 21.3 S 1 3 1024.6 - 7.2 - - - - - - -
31/05:30pm 22.0 S 1 1 1024.3 - 7.2 - - - - - - -
31/05:00pm 22.4 SW 1 3 1024.2 - 7.2 - - - - - - -
31/04:30pm 22.3 CALM 0 0 1024.3 - 7.2 - - - - - - -
31/04:00pm 21.1 NE 1 3 1024.5 - 7.2 - - - - - - -
31/03:30pm 20.6 CALM 0 1 1024.6 - 7.2 - - - - - - -
31/03:00pm 22.0 E 5 9 1024.6 - 7.0 - - - - - - -
31/02:30pm 22.2 ESE 3 5 1024.8 - 7.0 - - - - - - -
31/02:00pm 22.2 E 3 6 1025.0 - 7.0 - - - - - - -
31/01:30pm 22.4 SE 1 2 1025.3 - 7.0 - - - - - - -
31/01:00pm 22.0 CALM 0 0 1025.8 - 7.0 - - - - - - -
31/12:30pm 20.8 CALM 0 0 1026.1 - 7.0 - - - - - - -
31/12:00pm 20.2 CALM 0 0 1026.7 - 7.0 Recent precip. - - - - - -
31/11:30am 19.4 NNE 2 4 1027.0 - 7.0 - - - - - - -
31/11:00am 19.4 WSW 1 3 1027.0 - 4.4 - - - - - - -
31/10:30am 18.9 WNW 1 3 1027.0 - 3.6 - - - - - - -
31/10:00am 18.3 NE 1 3 1027.0 - 2.0 - - - - - - -
31/09:30am 18.0 CALM 0 0 1026.7 - 0.0 - - - - - - -
31/09:00am 17.6 CALM 0 0 1026.3 - 13.2 Recent precip. - - - - - -
31/08:30am 17.0 NW 1 2 1026.2 - 13.0 - - - - - - -
31/08:00am 17.1 CALM 0 0 1025.9 - 12.6 - - - - - - -
31/07:30am 16.3 NW 1 3 1025.5 - 12.4 - - - - - - -
31/07:00am 15.9 CALM 0 0 1025.1 - 12.4 - - - - - - -
31/06:30am 15.9 CALM 0 0 1025.0 - 12.4 - - - - - - -
31/06:00am 15.8 CALM 0 0 1024.6 - 12.4 - - - - - - -
31/05:30am 16.3 CALM 0 0 1024.3 - 12.4 - - - - - - -
31/05:00am 16.6 CALM 0 0 1024.3 - 12.4 - - - - - - -
31/04:30am 16.4 CALM 0 0 1024.0 - 12.4 - - - - - - -
31/04:00am 17.1 CALM 0 0 1024.2 - 12.4 - - - - - - -
31/03:30am 17.3 CALM 0 0 1024.4 - 12.4 - - - - - - -
31/03:00am 17.6 WNW 1 3 1024.5 - 12.4 - - - - - - -
31/02:30am 17.8 CALM 0 0 1024.6 - 12.4 - - - - - - -
31/02:00am 18.0 CALM 0 1 1024.9 - 12.4 - - - - - - -
31/01:30am 17.9 CALM 0 0 1025.1 - 12.4 - - - - - - -
31/01:00am 18.2 CALM 0 2 1024.9 - 12.4 - - - - - - -
31/12:30am 18.3 CALM 0 0 1024.8 - 12.4 - - - - - - -
31/12:00am 18.2 CALM 0 0 1025.0 - 12.4 - - - - - - -
 
Date/Time
EDT
Temp

°C
Wind Pressure Rain
since 9am
mm
Weather Cloud Vis
km
Sea
Height
m
Swell
Dir
 
Speed
knots
Gust
knots
hPa Trend Height
m
Period
s
Dir
30/11:30pm 18.4 CALM 0 0 1025.0 - 12.4 - - - - - - -
30/11:00pm 18.6 CALM 0 0 1025.4 - 12.4 - - - - - - -
30/10:30pm 18.7 N 2 3 1025.4 - 12.4 - - - - - - -
30/10:00pm 18.7 CALM 0 0 1025.5 - 12.2 - - - - - - -
30/09:30pm 18.9 S 1 1 1025.5 - 11.6 - - - - - - -
30/09:00pm 18.9 ESE 3 4 1025.3 - 10.2 Rain - - - - - -

Other Formats:

Comma delimited format used in spreadsheet applications
http://www.bom.gov.au/fwo/IDN60701/IDN60701.95767.axf

JavaScript Object Notation format (JSON) in row-major order
http://www.bom.gov.au/fwo/IDN60701/IDN60701.95767.json